ENXZ weather

Sleipner B Platform
Norway

Public forecast

Using degrees Celsius for public forecast. Weather courtesy of forecast.io.

Closest aviation weather report (METAR) to Sleipner B Platform

Closest report is Sleipner A Platform, 6.7 nm (12.4 km) ESE. Retrieved 2019/10/19 11:20 UTC (0 seconds ago):

ENSL 191120Z AUTO 03020KT 9999NDV FEW012/// SCT091/// 11/09 Q0997 W09/S4

Closest aviation forecast (TAF) to Sleipner B Platform

Closest forecast is Stavanger Airport Sola, 125.6 nm (232.5 km) ENE. Retrieved 2019/10/19 06:57 UTC (4 hours ago):

TAF ENZV 190500Z 1906/2006 04005KT 9999 FEW020 BKN050 PROB40 TEMPO 1906/1920 SHRA BKN012 SCT020CB BECMG 1916/1918 13010KT TEMPO 1920/2006 SHRA FEW015 SCT030CB BECMG 2000/2003 VRB05KT